Harmonyville, Vermont
Current Conditions -  °F | °C
As of 9:54 PM on Wednesday 22 Oct 2014 (Local Time) from KVSF Reporting Station
Light Rain Light Rain  
Wind Chill: 43°   Ceiling: 2200
Heat Index: 48°   Visibility: 9mi
Dew Point: 43°   Wind: 12mph
Humidity: 83%   Direction: 20°NNE
Pressure: 30"   Gusts: 18mph
Location:  43.0642°N, 72.6668°W
Report Text: KVSF 230154Z AUTO 02010G16KT 9SM -RA OVC022 09/06 A3000 RMK AO2 RAB54 SLP161 P0000 T00890061
Loading
Personal Weather Stations






























Interactive Weather Map New forecast layout! Learn more

10-Day Weather Forecast

Advertisements
Track Severe Weather on mobile